Time;durP1;ratioP1;P1;durP2;ratioP2;P2;SDS_P1;SDS_P2;PMS_P1;PMS_P2;Temp;Humidity;BMP_temperature;BMP_pressure;BME280_temperature;BME280_humidity;BME280_pressure;Samples;Min_cycle;Max_cycle;Signal;HPM_P1;HPM_P2
2022/01/24 00:00:58;;;;;;;10.60;4.70;;;6.20;1.00;;;;;;5033169;28;20192;-70
2022/01/24 00:03:24;;;;;;;9.73;4.90;;;6.30;1.00;;;;;;5033864;28;20174;-76
2022/01/24 00:05:49;;;;;;;8.53;5.50;;;6.30;1.00;;;;;;5033604;28;20410;-69
2022/01/24 00:08:15;;;;;;;10.43;6.30;;;6.20;1.00;;;;;;5033482;28;20608;-75
2022/01/24 00:10:41;;;;;;;7.30;5.10;;;6.20;1.00;;;;;;5032531;28;20585;-76
2022/01/24 00:16:15;;;;;;;4.63;4.23;;;6.20;1.00;;;;;;5033463;28;20649;-75
2022/01/24 00:26:52;;;;;;;7.40;5.03;;;6.30;1.00;;;;;;5033599;28;20472;-75
2022/01/24 00:29:20;;;;;;;5.67;4.90;;;6.20;1.00;;;;;;5032361;28;20953;-69
2022/01/24 00:31:47;;;;;;;8.10;5.93;;;6.10;1.00;;;;;;5033201;28;20257;-69
2022/01/24 00:34:13;;;;;;;9.03;5.97;;;6.10;1.00;;;;;;5033230;28;20390;-74
2022/01/24 00:36:40;;;;;;;6.33;5.63;;;6.20;1.00;;;;;;5032955;28;20395;-75
2022/01/24 00:39:06;;;;;;;5.27;4.77;;;6.10;1.00;;;;;;5031650;28;20810;-69
2022/01/24 00:41:44;;;;;;;16.40;6.13;;;6.10;1.00;;;;;;5033027;28;20418;-69
2022/01/24 00:44:34;;;;;;;6.43;4.70;;;6.10;1.00;;;;;;5033139;28;20998;-69
2022/01/24 00:47:03;;;;;;;6.10;5.50;;;6.10;1.00;;;;;;5032818;28;20479;-75
2022/01/24 00:57:07;;;;;;;12.87;5.97;;;6.20;1.00;;;;;;5032760;28;20493;-72
2022/01/24 00:59:32;;;;;;;6.47;5.33;;;6.20;1.00;;;;;;5030456;28;20189;-75
2022/01/24 01:01:58;;;;;;;9.40;5.50;;;6.20;1.00;;;;;;5032908;28;20652;-69
2022/01/24 01:04:31;;;;;;;10.23;6.80;;;6.20;1.00;;;;;;5032855;28;20179;-69
2022/01/24 01:07:03;;;;;;;12.80;5.20;;;6.20;1.00;;;;;;5032822;28;20163;-75
2022/01/24 01:20:28;;;;;;;9.47;5.80;;;6.30;1.00;;;;;;5035734;28;20483;-76
2022/01/24 01:22:53;;;;;;;9.20;7.53;;;6.30;1.00;;;;;;5036593;28;20505;-75
2022/01/24 01:25:19;;;;;;;14.60;7.87;;;6.30;1.00;;;;;;5036692;28;20937;-69
2022/01/24 01:27:47;;;;;;;8.30;6.47;;;6.30;1.00;;;;;;5036570;28;20160;-75
2022/01/24 01:30:24;;;;;;;10.17;5.70;;;6.40;1.00;;;;;;5035515;28;20454;-70
2022/01/24 01:33:04;;;;;;;11.63;6.40;;;6.40;1.00;;;;;;5036501;28;20404;-75
2022/01/24 01:35:57;;;;;;;12.40;5.00;;;6.30;1.00;;;;;;5036565;28;20393;-69
2022/01/24 01:57:02;;;;;;;15.40;6.43;;;6.10;1.00;;;;;;5035508;28;20425;-76
2022/01/24 01:59:29;;;;;;;11.83;7.27;;;6.10;1.00;;;;;;5035135;28;20911;-75
2022/01/24 02:01:55;;;;;;;12.60;7.37;;;6.10;1.00;;;;;;5035816;28;20425;-75
2022/01/24 02:04:20;;;;;;;11.47;7.70;;;6.00;1.00;;;;;;5035829;28;20407;-69
2022/01/24 02:06:46;;;;;;;12.53;7.20;;;6.00;1.00;;;;;;5036051;28;20178;-75
2022/01/24 02:09:13;;;;;;;13.13;8.43;;;6.00;1.00;;;;;;5034819;28;20198;-75
2022/01/24 02:11:39;;;;;;;9.93;7.50;;;6.10;1.00;;;;;;5035676;28;20555;-70
2022/01/24 02:14:13;;;;;;;11.90;7.83;;;6.10;1.00;;;;;;5035206;28;20402;-75
2022/01/24 02:16:49;;;;;;;8.57;6.87;;;6.20;1.00;;;;;;5035712;28;20409;-75
2022/01/24 02:19:22;;;;;;;11.43;6.47;;;6.20;1.00;;;;;;5034622;28;20493;-71
2022/01/24 02:22:07;;;;;;;12.87;8.40;;;6.20;1.00;;;;;;5035079;28;20421;-69
2022/01/24 02:24:40;;;;;;;11.63;8.60;;;6.10;1.00;;;;;;5035536;28;20402;-69
2022/01/24 02:27:06;;;;;;;13.73;8.57;;;6.10;1.00;;;;;;5035471;28;20485;-76
2022/01/24 02:32:16;;;;;;;13.47;8.50;;;6.10;1.00;;;;;;5035392;28;20469;-75
2022/01/24 02:34:45;;;;;;;17.00;8.90;;;6.10;1.00;;;;;;5035576;28;20450;-76
2022/01/24 02:37:14;;;;;;;8.60;6.67;;;6.10;1.00;;;;;;5035249;28;20899;-70
2022/01/24 02:39:46;;;;;;;11.33;8.40;;;6.10;1.00;;;;;;5034308;28;20497;-70
2022/01/24 02:50:29;;;;;;;9.00;6.83;;;6.00;1.00;;;;;;5034002;28;20472;-69
2022/01/24 02:52:54;;;;;;;13.43;9.20;;;6.00;1.00;;;;;;5034938;28;20402;-75
2022/01/24 02:55:20;;;;;;;16.17;8.30;;;6.00;1.00;;;;;;5034970;28;20918;-70
2022/01/24 02:57:46;;;;;;;17.13;8.23;;;6.10;1.00;;;;;;5034882;28;20171;-69
2022/01/24 03:00:12;;;;;;;16.93;8.90;;;6.10;1.00;;;;;;5034031;28;20202;-75
2022/01/24 03:02:38;;;;;;;15.07;10.07;;;6.10;1.00;;;;;;5034911;28;20171;-76
2022/01/24 03:05:03;;;;;;;11.20;7.97;;;6.20;1.00;;;;;;5034111;28;20544;-76
2022/01/24 03:07:31;;;;;;;13.60;7.60;;;6.10;1.00;;;;;;5034768;28;20564;-75
2022/01/24 03:09:57;;;;;;;15.30;9.60;;;6.20;1.00;;;;;;5033550;28;20798;-71
2022/01/24 03:15:17;;;;;;;15.70;9.43;;;6.20;1.00;;;;;;5015130;28;20180;-70
2022/01/24 03:17:42;;;;;;;12.10;9.03;;;6.20;1.00;;;;;;5034415;28;20410;-69
2022/01/24 03:20:08;;;;;;;14.63;8.93;;;6.20;1.00;;;;;;5033505;28;20638;-69
2022/01/24 03:22:34;;;;;;;14.27;9.00;;;6.20;1.00;;;;;;5034420;28;20177;-75
2022/01/24 03:24:59;;;;;;;10.47;8.33;;;6.10;1.00;;;;;;5033732;28;20203;-69
2022/01/24 03:27:25;;;;;;;16.57;8.73;;;6.20;1.00;;;;;;5034525;28;20195;-75
2022/01/24 03:29:51;;;;;;;14.30;9.10;;;6.20;1.00;;;;;;5033126;28;20203;-69
2022/01/24 03:32:16;;;;;;;15.80;9.10;;;6.20;1.00;;;;;;5034190;28;20168;-69
2022/01/24 03:34:43;;;;;;;18.83;9.10;;;6.20;1.00;;;;;;5033565;28;20170;-69
2022/01/24 03:37:09;;;;;;;12.97;8.40;;;6.20;1.00;;;;;;5034158;28;20195;-69
2022/01/24 03:39:34;;;;;;;15.27;8.83;;;6.20;1.00;;;;;;5033201;28;20446;-73
2022/01/24 03:42:00;;;;;;;12.80;8.83;;;6.20;1.00;;;;;;5033494;28;20438;-74
2022/01/24 03:44:28;;;;;;;12.70;8.47;;;6.20;1.00;;;;;;5034010;28;20292;-76
2022/01/24 03:49:45;;;;;;;12.60;9.23;;;6.20;1.00;;;;;;5032993;28;20535;-76
2022/01/24 03:52:13;;;;;;;11.33;7.60;;;6.10;1.00;;;;;;5033694;28;20430;-75
2022/01/24 03:54:43;;;;;;;12.17;8.37;;;6.10;1.00;;;;;;5033735;28;20414;-75
2022/01/24 03:57:10;;;;;;;9.30;7.07;;;6.00;1.00;;;;;;5033767;28;20428;-69
2022/01/24 03:59:36;;;;;;;12.47;8.10;;;6.00;1.00;;;;;;5032127;28;20472;-73
2022/01/24 04:02:02;;;;;;;16.60;9.90;;;6.00;1.00;;;;;;5033689;28;20935;-70
2022/01/24 04:04:27;;;;;;;26.87;9.77;;;6.10;1.00;;;;;;5033543;28;20167;-75
2022/01/24 04:06:53;;;;;;;13.20;8.20;;;6.10;1.00;;;;;;5033506;28;20475;-71
2022/01/24 04:09:19;;;;;;;12.37;8.00;;;6.10;1.00;;;;;;5031434;28;20236;-70
2022/01/24 04:11:48;;;;;;;10.67;6.93;;;6.10;1.00;;;;;;5033452;28;20429;-69
2022/01/24 04:17:09;;;;;;;11.57;8.53;;;6.10;1.00;;;;;;5033506;28;20419;-69
2022/01/24 04:22:01;;;;;;;15.40;8.50;;;5.90;1.00;;;;;;5033535;28;20435;-70
2022/01/24 04:24:27;;;;;;;14.77;8.83;;;6.00;1.00;;;;;;5033198;28;20408;-69
2022/01/24 04:26:53;;;;;;;14.40;9.13;;;6.00;1.00;;;;;;5033318;28;20175;-76
2022/01/24 04:29:19;;;;;;;10.00;8.07;;;6.00;1.00;;;;;;5032344;28;20945;-69
2022/01/24 04:31:45;;;;;;;14.23;9.53;;;6.10;1.00;;;;;;5033129;28;20277;-68
2022/01/24 04:34:11;;;;;;;14.50;7.60;;;6.10;1.00;;;;;;5033196;28;20250;-74
2022/01/24 04:36:37;;;;;;;16.33;9.03;;;6.10;1.00;;;;;;5032579;28;20421;-70
2022/01/24 04:39:04;;;;;;;12.90;8.50;;;6.00;1.00;;;;;;5032144;28;20398;-69
2022/01/24 04:41:43;;;;;;;16.30;9.00;;;6.00;1.00;;;;;;5033161;28;21010;-72
2022/01/24 04:52:10;;;;;;;14.33;8.73;;;6.00;1.00;;;;;;5032925;28;20853;-69
2022/01/24 04:57:02;;;;;;;12.30;8.37;;;6.00;1.00;;;;;;5032673;28;20501;-70
2022/01/24 04:59:28;;;;;;;15.50;8.67;;;6.10;1.00;;;;;;5032067;28;20406;-76
2022/01/24 05:01:53;;;;;;;12.27;7.97;;;6.10;1.00;;;;;;5032842;28;20499;-69
2022/01/24 05:04:19;;;;;;;14.57;8.97;;;6.10;1.00;;;;;;5032943;28;20171;-76
2022/01/24 05:06:45;;;;;;;15.43;8.97;;;6.10;1.00;;;;;;5031577;28;20688;-75
2022/01/24 05:09:10;;;;;;;17.17;10.10;;;6.10;1.00;;;;;;5031847;28;20203;-76
2022/01/24 05:11:48;;;;;;;17.17;8.67;;;6.10;1.00;;;;;;5032803;28;20676;-75
2022/01/24 05:25:11;;;;;;;12.10;7.93;;;6.20;1.00;;;;;;5032673;28;20464;-75
2022/01/24 05:27:37;;;;;;;11.80;7.90;;;6.20;1.00;;;;;;5032676;28;20422;-70
2022/01/24 05:30:04;;;;;;;9.97;7.53;;;6.20;1.00;;;;;;5031685;28;20209;-76
2022/01/24 05:32:30;;;;;;;9.97;7.17;;;6.20;1.00;;;;;;5032631;28;20225;-74
2022/01/24 05:34:55;;;;;;;9.80;7.20;;;6.10;1.00;;;;;;5031929;28;20402;-71
2022/01/24 05:37:21;;;;;;;9.10;7.10;;;6.10;1.00;;;;;;5032767;28;20643;-69
2022/01/24 05:39:47;;;;;;;12.33;6.83;;;6.10;1.00;;;;;;5031654;28;20171;-68
2022/01/24 05:42:12;;;;;;;8.73;7.37;;;6.10;1.00;;;;;;5032617;28;20654;-70
2022/01/24 05:44:38;;;;;;;13.17;7.40;;;6.00;1.00;;;;;;5032390;28;20175;-69
2022/01/24 05:47:04;;;;;;;8.80;6.63;;;6.00;1.00;;;;;;5032361;28;20184;-76
2022/01/24 05:49:29;;;;;;;10.30;7.83;;;6.00;1.00;;;;;;5031494;28;20207;-69
2022/01/24 05:51:55;;;;;;;15.90;8.07;;;6.10;1.00;;;;;;5031802;28;20432;-70
2022/01/24 05:54:21;;;;;;;13.30;7.67;;;6.10;1.00;;;;;;5032280;28;20172;-75
2022/01/24 05:56:47;;;;;;;8.83;6.40;;;6.00;1.00;;;;;;5033149;28;20591;-69
2022/01/24 05:59:12;;;;;;;9.00;7.17;;;6.00;1.00;;;;;;5035005;28;20437;-69
2022/01/24 06:01:38;;;;;;;9.87;6.77;;;6.10;1.00;;;;;;5035940;28;20553;-69
2022/01/24 06:04:04;;;;;;;11.80;7.03;;;6.10;1.00;;;;;;5036072;28;20536;-77
2022/01/24 06:06:29;;;;;;;10.63;7.80;;;6.00;1.00;;;;;;5035866;28;20175;-78
2022/01/24 06:08:55;;;;;;;11.03;7.77;;;6.10;1.00;;;;;;5034852;28;20180;-70
2022/01/24 06:11:23;;;;;;;7.47;6.77;;;6.00;1.00;;;;;;5035273;28;20188;-69
2022/01/24 06:13:51;;;;;;;9.97;7.37;;;6.00;1.00;;;;;;5035530;28;20172;-69
2022/01/24 06:16:16;;;;;;;13.00;7.10;;;6.00;1.00;;;;;;5035779;28;20394;-69
2022/01/24 06:18:42;;;;;;;12.87;7.40;;;6.00;1.00;;;;;;5034973;28;21006;-75
2022/01/24 06:21:08;;;;;;;14.37;8.33;;;6.00;1.00;;;;;;5035323;28;20203;-74
2022/01/24 06:23:34;;;;;;;11.90;8.47;;;6.00;1.00;;;;;;5035568;28;20425;-69
2022/01/24 06:25:59;;;;;;;11.20;8.10;;;6.00;1.00;;;;;;5035473;28;20179;-73
2022/01/24 06:28:25;;;;;;;11.93;7.47;;;6.00;1.00;;;;;;5035168;28;20175;-75
2022/01/24 06:30:51;;;;;;;11.00;7.53;;;6.00;1.00;;;;;;5034377;28;20207;-70
2022/01/24 06:33:16;;;;;;;10.93;8.67;;;6.00;1.00;;;;;;5034803;28;20688;-68
2022/01/24 06:35:42;;;;;;;8.77;6.87;;;6.00;1.00;;;;;;5035320;28;20262;-69
2022/01/24 06:38:08;;;;;;;9.27;6.90;;;6.00;1.00;;;;;;5035334;28;20182;-76
2022/01/24 06:40:33;;;;;;;13.30;7.80;;;6.00;1.00;;;;;;5034252;28;20574;-72
2022/01/24 06:42:59;;;;;;;10.97;8.07;;;6.00;1.00;;;;;;5035054;28;20600;-74
2022/01/24 06:45:25;;;;;;;13.43;8.30;;;6.00;1.00;;;;;;5035103;28;20190;-73
2022/01/24 06:47:51;;;;;;;13.43;8.63;;;6.00;1.00;;;;;;5035040;28;20186;-74
2022/01/24 06:50:16;;;;;;;10.50;7.97;;;6.00;1.00;;;;;;5033570;28;20953;-70
2022/01/24 06:52:42;;;;;;;8.60;7.40;;;6.00;1.00;;;;;;5034834;28;20167;-69
2022/01/24 06:55:08;;;;;;;14.43;9.90;;;6.00;1.00;;;;;;5034966;28;20163;-76
2022/01/24 06:57:34;;;;;;;13.80;8.73;;;6.00;1.00;;;;;;5034859;28;20441;-74
2022/01/24 07:00:00;;;;;;;13.10;8.20;;;6.00;1.00;;;;;;5033925;28;20445;-68
2022/01/24 07:02:25;;;;;;;9.50;6.77;;;6.00;1.00;;;;;;5034852;28;20178;-68
2022/01/24 07:04:51;;;;;;;9.00;7.90;;;6.00;1.00;;;;;;5034937;28;20180;-69
2022/01/24 07:07:17;;;;;;;10.13;7.10;;;6.10;1.00;;;;;;5034614;28;20187;-68
2022/01/24 07:09:44;;;;;;;16.63;7.17;;;6.00;1.00;;;;;;5032213;28;20234;-75
2022/01/24 07:12:10;;;;;;;10.70;8.80;;;6.10;1.00;;;;;;5034646;28;20188;-76
2022/01/24 07:14:36;;;;;;;14.33;7.97;;;6.00;1.00;;;;;;5034681;28;20921;-76
2022/01/24 07:17:11;;;;;;;9.77;7.83;;;6.00;1.00;;;;;;5034569;28;20402;-69
2022/01/24 07:19:37;;;;;;;9.23;7.53;;;6.00;1.00;;;;;;5033408;28;20647;-74
2022/01/24 07:22:05;;;;;;;8.30;7.40;;;6.00;1.00;;;;;;5033238;28;20585;-75
2022/01/24 07:24:31;;;;;;;10.77;7.87;;;6.10;1.00;;;;;;5034173;28;20210;-71
2022/01/24 07:26:57;;;;;;;7.10;6.33;;;6.00;1.00;;;;;;5034108;28;20406;-70
2022/01/24 07:29:23;;;;;;;9.30;7.30;;;6.00;1.00;;;;;;5033514;28;20445;-69
2022/01/24 07:31:49;;;;;;;13.53;8.17;;;5.90;1.00;;;;;;5034150;28;20551;-69
2022/01/24 07:34:16;;;;;;;7.70;6.90;;;5.90;1.00;;;;;;5034281;28;20241;-71
2022/01/24 07:36:42;;;;;;;10.47;6.90;;;5.80;1.00;;;;;;5034182;28;20402;-69
2022/01/24 07:39:08;;;;;;;14.40;7.23;;;5.80;1.00;;;;;;5033282;28;20420;-69
2022/01/24 07:41:41;;;;;;;11.07;7.80;;;5.80;1.00;;;;;;5032537;28;20914;-75
2022/01/24 07:44:07;;;;;;;10.57;7.70;;;5.80;1.00;;;;;;5033985;28;20168;-76
2022/01/24 07:46:34;;;;;;;16.53;7.80;;;5.80;1.00;;;;;;5033940;28;20623;-69
2022/01/24 07:49:07;;;;;;;10.80;7.33;;;5.70;1.00;;;;;;5032898;28;20172;-69
2022/01/24 07:51:33;;;;;;;13.03;8.60;;;5.70;1.00;;;;;;5033827;28;20429;-74
2022/01/24 07:53:59;;;;;;;11.00;6.47;;;5.80;1.00;;;;;;5032562;28;20775;-75
2022/01/24 07:56:25;;;;;;;13.00;7.47;;;5.80;1.00;;;;;;5032809;28;20405;-75
2022/01/24 07:58:50;;;;;;;11.87;6.30;;;5.80;1.00;;;;;;5033015;28;20168;-69
2022/01/24 08:01:16;;;;;;;13.97;7.97;;;5.80;1.00;;;;;;5033065;28;20744;-75
2022/01/24 08:03:42;;;;;;;14.17;8.10;;;5.80;1.00;;;;;;5033670;28;20651;-69
2022/01/24 08:06:08;;;;;;;12.73;7.53;;;5.80;1.00;;;;;;5032566;28;20179;-75
2022/01/24 08:08:34;;;;;;;7.43;6.70;;;5.80;1.00;;;;;;5031348;28;20421;-69
2022/01/24 08:10:59;;;;;;;12.53;8.07;;;5.80;1.00;;;;;;5033479;28;20449;-69
2022/01/24 08:13:25;;;;;;;9.03;7.20;;;5.80;1.00;;;;;;5033659;28;20179;-68
2022/01/24 08:15:51;;;;;;;7.23;6.40;;;5.80;1.00;;;;;;5033461;28;20172;-69
2022/01/24 08:18:17;;;;;;;10.77;6.63;;;5.80;1.00;;;;;;5032714;28;20163;-74
2022/01/24 08:20:42;;;;;;;8.70;6.90;;;5.90;1.00;;;;;;5032091;28;20201;-75
2022/01/24 08:23:11;;;;;;;13.90;8.10;;;5.90;1.00;;;;;;5033375;28;20209;-68
2022/01/24 08:25:38;;;;;;;9.43;7.07;;;5.80;1.00;;;;;;5033342;28;20172;-70
2022/01/24 08:28:04;;;;;;;10.50;7.87;;;5.90;1.00;;;;;;5033254;28;20403;-74
2022/01/24 08:30:31;;;;;;;9.67;6.27;;;5.90;1.00;;;;;;5032179;28;20868;-75
2022/01/24 08:32:56;;;;;;;7.33;6.40;;;5.90;1.00;;;;;;5033313;28;20402;-69
2022/01/24 08:35:22;;;;;;;9.40;7.40;;;5.90;1.00;;;;;;5033338;28;20917;-68
2022/01/24 08:37:48;;;;;;;9.10;6.73;;;5.80;1.00;;;;;;5031353;28;20173;-68
2022/01/24 08:40:24;;;;;;;8.43;6.83;;;5.90;1.00;;;;;;5030867;28;20433;-75
2022/01/24 08:43:05;;;;;;;12.00;7.97;;;5.80;1.00;;;;;;5032712;28;20460;-68
2022/01/24 08:45:47;;;;;;;10.53;7.03;;;5.90;1.00;;;;;;5033078;28;20814;-69
2022/01/24 08:48:16;;;;;;;15.33;8.57;;;5.90;1.00;;;;;;5032922;28;20964;-68
2022/01/24 08:50:42;;;;;;;9.80;7.43;;;6.00;1.00;;;;;;5031744;28;20465;-68
2022/01/24 08:53:09;;;;;;;12.83;7.20;;;5.90;1.00;;;;;;5033046;28;20465;-68
2022/01/24 08:55:36;;;;;;;7.60;6.60;;;6.00;1.00;;;;;;5032960;28;20485;-75
2022/01/24 08:58:04;;;;;;;11.93;8.20;;;5.90;1.00;;;;;;5032337;28;20457;-68
2022/01/24 09:00:29;;;;;;;8.43;6.80;;;5.90;1.00;;;;;;5031929;28;20432;-68
2022/01/24 09:02:55;;;;;;;19.10;8.77;;;5.90;1.00;;;;;;5032895;28;20395;-68
2022/01/24 09:05:23;;;;;;;9.30;7.00;;;6.00;1.00;;;;;;5032957;28;20168;-69
2022/01/24 09:07:49;;;;;;;8.67;7.00;;;6.00;1.00;;;;;;5033049;28;20426;-68
2022/01/24 09:10:16;;;;;;;14.57;8.43;;;6.00;1.00;;;;;;5030474;28;20460;-69
2022/01/24 09:12:41;;;;;;;12.80;8.70;;;6.00;1.00;;;;;;5032756;28;20398;-74
2022/01/24 09:15:07;;;;;;;10.83;7.83;;;6.00;1.00;;;;;;5031608;28;20937;-68
2022/01/24 09:17:33;;;;;;;11.57;6.73;;;6.10;1.00;;;;;;5032264;28;20886;-74
2022/01/24 09:19:59;;;;;;;10.80;7.50;;;6.20;1.00;;;;;;5031844;28;20415;-74
2022/01/24 09:22:25;;;;;;;10.53;8.57;;;6.20;1.00;;;;;;5032817;28;20174;-75
2022/01/24 09:24:51;;;;;;;11.93;7.60;;;6.20;1.00;;;;;;5031360;28;20682;-68
2022/01/24 09:27:16;;;;;;;9.77;7.53;;;6.20;1.00;;;;;;5032708;28;20414;-69
2022/01/24 09:29:42;;;;;;;7.63;6.80;;;6.20;1.00;;;;;;5031860;28;20269;-75
2022/01/24 09:32:08;;;;;;;8.90;7.03;;;6.20;1.00;;;;;;5032885;28;20194;-68
2022/01/24 09:34:34;;;;;;;10.70;7.43;;;6.10;1.00;;;;;;5036509;28;20250;-75
2022/01/24 09:37:00;;;;;;;8.03;7.23;;;6.20;1.00;;;;;;5035930;28;20168;-70
2022/01/24 09:39:25;;;;;;;9.77;7.17;;;6.20;1.00;;;;;;5034486;28;20214;-69
2022/01/24 09:41:54;;;;;;;8.27;7.20;;;6.30;1.00;;;;;;5036255;28;20814;-74
2022/01/24 09:44:20;;;;;;;12.00;7.83;;;6.20;1.00;;;;;;5035400;28;20180;-75
2022/01/24 09:46:46;;;;;;;12.80;8.60;;;6.20;1.00;;;;;;5034919;28;20406;-68
2022/01/24 09:49:13;;;;;;;12.43;8.80;;;6.30;1.00;;;;;;5035216;28;20429;-69
2022/01/24 09:51:39;;;;;;;10.43;7.90;;;6.30;1.00;;;;;;5036182;28;20426;-68
2022/01/24 09:54:07;;;;;;;15.57;8.00;;;6.30;1.00;;;;;;5035526;28;20945;-71
2022/01/24 09:56:34;;;;;;;11.00;7.67;;;6.30;1.00;;;;;;5034773;28;20425;-74
2022/01/24 09:59:01;;;;;;;11.17;7.40;;;6.20;1.00;;;;;;5035138;28;20965;-69
2022/01/24 10:01:27;;;;;;;12.57;7.90;;;6.30;1.00;;;;;;5035914;28;20906;-75
2022/01/24 10:04:15;;;;;;;8.43;7.43;;;6.30;1.00;;;;;;5035965;28;20398;-74
2022/01/24 10:07:02;;;;;;;12.23;7.50;;;6.30;1.00;;;;;;5034535;28;20413;-69
2022/01/24 10:09:29;;;;;;;12.87;8.67;;;6.40;1.00;;;;;;5034744;28;20942;-75
2022/01/24 10:12:13;;;;;;;10.07;7.77;;;6.40;1.00;;;;;;5035654;28;20923;-73
2022/01/24 10:17:29;;;;;;;10.03;8.53;;;6.40;1.00;;;;;;5035620;28;20443;-68
2022/01/24 10:19:55;;;;;;;12.57;8.37;;;6.30;1.00;;;;;;5034724;28;20906;-70
2022/01/24 10:22:23;;;;;;;9.87;8.53;;;6.40;1.00;;;;;;5035811;28;20164;-68
2022/01/24 10:24:51;;;;;;;13.57;9.23;;;6.40;1.00;;;;;;5035550;28;20924;-68
2022/01/24 10:27:21;;;;;;;10.33;7.97;;;6.20;1.00;;;;;;5035494;28;20941;-69
2022/01/24 10:29:56;;;;;;;19.77;9.43;;;6.00;1.00;;;;;;5034552;28;20966;-75
2022/01/24 10:32:38;;;;;;;17.67;9.97;;;5.90;1.00;;;;;;5035174;28;20779;-75
2022/01/24 10:35:44;;;;;;;15.57;9.83;;;5.80;1.00;;;;;;5035531;28;20400;-68
2022/01/24 10:41:25;;;;;;;11.03;9.10;;;5.90;1.00;;;;;;5001704;28;20966;-68
2022/01/24 10:43:58;;;;;;;10.93;8.23;;;5.90;1.00;;;;;;5035035;28;20887;-69
2022/01/24 10:46:26;;;;;;;10.33;9.13;;;5.80;1.00;;;;;;5035323;28;20436;-76
2022/01/24 10:49:30;;;;;;;19.13;10.13;;;5.80;1.00;;;;;;5034155;28;20426;-67
2022/01/24 10:52:17;;;;;;;11.37;8.80;;;5.80;1.00;;;;;;5031420;28;20440;-75
2022/01/24 10:54:43;;;;;;;13.93;9.30;;;5.70;1.00;;;;;;5035057;28;20404;-75
2022/01/24 10:57:18;;;;;;;16.93;10.87;;;5.70;1.00;;;;;;5033999;28;20412;-67
2022/01/24 10:59:44;;;;;;;15.27;10.40;;;5.80;1.00;;;;;;5034105;28;20402;-67
2022/01/24 11:02:15;;;;;;;15.80;10.73;;;5.80;1.00;;;;;;5033794;28;20422;-76
2022/01/24 11:04:41;;;;;;;14.50;10.00;;;5.80;1.00;;;;;;5034939;28;20657;-67
2022/01/24 11:07:06;;;;;;;18.43;10.57;;;5.80;1.00;;;;;;5034865;28;20408;-72
2022/01/24 11:09:37;;;;;;;13.70;9.40;;;5.80;1.00;;;;;;5031841;28;20210;-67
2022/01/24 11:12:07;;;;;;;16.77;10.00;;;5.80;1.00;;;;;;5034579;28;20217;-76
2022/01/24 11:14:35;;;;;;;12.50;9.13;;;5.80;1.00;;;;;;5034708;28;20408;-76
2022/01/24 11:17:01;;;;;;;12.90;10.03;;;5.70;1.00;;;;;;5034652;28;20412;-75
2022/01/24 11:19:47;;;;;;;12.13;7.90;;;5.70;1.00;;;;;;5033578;28;20412;-68
2022/01/24 11:22:22;;;;;;;15.10;9.67;;;5.70;1.00;;;;;;5034498;28;20440;-68
2022/01/24 11:25:06;;;;;;;19.20;11.77;;;5.70;1.00;;;;;;5034251;28;20398;-75
2022/01/24 11:27:32;;;;;;;15.70;10.53;;;5.60;1.00;;;;;;5032901;28;20817;-75
2022/01/24 11:30:07;;;;;;;22.40;9.83;;;5.50;1.00;;;;;;5033287;28;20507;-75
2022/01/24 11:32:43;;;;;;;17.23;10.17;;;5.50;1.00;;;;;;5034308;28;20402;-69
2022/01/24 11:35:09;;;;;;;21.00;10.47;;;5.60;1.00;;;;;;5034374;28;20396;-68
2022/01/24 11:37:41;;;;;;;18.30;11.83;;;5.60;1.00;;;;;;5034107;28;20404;-68
2022/01/24 11:40:11;;;;;;;19.73;11.33;;;5.70;1.00;;;;;;5033213;28;20398;-68
2022/01/24 11:42:39;;;;;;;21.00;13.00;;;5.70;1.00;;;;;;5034044;28;20529;-74
2022/01/24 11:45:12;;;;;;;23.97;13.50;;;5.80;1.00;;;;;;5033458;28;20764;-68
2022/01/24 11:47:39;;;;;;;21.63;12.63;;;5.80;1.00;;;;;;5033974;28;20402;-68
2022/01/24 11:50:24;;;;;;;22.47;12.10;;;5.70;1.00;;;;;;5032860;28;20598;-68
2022/01/24 11:52:50;;;;;;;25.00;13.60;;;5.80;1.00;;;;;;5033938;28;20394;-75
2022/01/24 11:55:30;;;;;;;24.27;13.27;;;5.90;1.00;;;;;;5033110;28;20433;-74
2022/01/24 11:58:09;;;;;;;23.70;13.00;;;5.90;1.00;;;;;;5032492;28;20415;-69
2022/01/24 12:00:44;;;;;;;22.13;12.97;;;5.80;1.00;;;;;;5032331;28;20486;-72
2022/01/24 12:03:26;;;;;;;19.20;12.10;;;5.80;1.00;;;;;;5033804;28;20393;-75
2022/01/24 12:05:58;;;;;;;25.90;14.07;;;5.80;1.00;;;;;;5033634;28;20544;-75
2022/01/24 12:08:34;;;;;;;27.40;14.03;;;5.80;1.00;;;;;;5032308;28;20418;-68
2022/01/24 12:11:23;;;;;;;24.47;12.43;;;5.80;1.00;;;;;;5033462;28;20457;-67
2022/01/24 12:14:00;;;;;;;25.30;13.83;;;5.80;1.00;;;;;;5033586;28;20398;-75
2022/01/24 12:16:45;;;;;;;23.30;13.60;;;5.90;1.00;;;;;;5033690;28;20949;-76
2022/01/24 12:19:12;;;;;;;25.70;13.20;;;6.00;1.00;;;;;;5032127;28;20403;-68
2022/01/24 12:21:41;;;;;;;26.30;14.57;;;5.90;1.00;;;;;;5033446;28;20445;-68
2022/01/24 12:24:14;;;;;;;28.73;14.03;;;5.80;1.00;;;;;;5033372;28;20435;-68
2022/01/24 12:26:49;;;;;;;27.13;15.20;;;5.80;1.00;;;;;;5033335;28;20421;-74
2022/01/24 12:29:21;;;;;;;17.00;12.37;;;5.90;1.00;;;;;;5032421;28;20882;-74
2022/01/24 12:31:50;;;;;;;27.50;13.73;;;5.90;1.00;;;;;;5033370;28;20480;-67
2022/01/24 12:34:28;;;;;;;26.53;13.73;;;5.90;1.00;;;;;;5033255;28;20937;-67
2022/01/24 12:37:00;;;;;;;23.53;13.60;;;5.80;1.00;;;;;;5032551;28;20398;-74
2022/01/24 12:39:27;;;;;;;26.50;13.67;;;5.70;1.00;;;;;;5031023;28;20430;-68
2022/01/24 12:42:01;;;;;;;25.93;14.30;;;5.80;1.00;;;;;;5033090;28;20527;-68
2022/01/24 12:47:04;;;;;;;24.10;13.90;;;5.80;1.00;;;;;;5033355;28;20944;-75
2022/01/24 12:49:30;;;;;;;23.10;13.50;;;5.80;1.00;;;;;;5032066;28;20458;-75
2022/01/24 12:52:02;;;;;;;26.17;15.27;;;5.80;1.00;;;;;;5033017;28;20693;-74
2022/01/24 12:54:34;;;;;;;36.37;16.67;;;5.80;1.00;;;;;;5032415;28;20482;-75
2022/01/24 12:57:06;;;;;;;31.33;16.40;;;5.80;1.00;;;;;;5032998;28;20392;-75
2022/01/24 12:59:32;;;;;;;27.13;14.40;;;5.70;1.00;;;;;;5032099;28;20566;-67
2022/01/24 13:02:02;;;;;;;31.73;13.50;;;5.70;1.00;;;;;;5032696;28;20420;-74
2022/01/24 13:04:37;;;;;;;28.87;15.67;;;5.70;1.00;;;;;;5032851;28;20771;-68
2022/01/24 13:07:05;;;;;;;35.93;14.07;;;5.80;1.00;;;;;;5035959;28;20410;-68
2022/01/24 13:09:30;;;;;;;32.23;16.30;;;5.70;1.00;;;;;;5036061;28;20454;-68
2022/01/24 13:12:00;;;;;;;37.20;16.87;;;5.70;1.00;;;;;;5035605;28;20428;-68
2022/01/24 13:23:10;;;;;;;34.50;15.57;;;5.60;1.00;;;;;;5036469;28;20431;-75
2022/01/24 13:25:39;;;;;;;35.40;16.80;;;5.60;1.00;;;;;;5036732;28;20495;-68
2022/01/24 13:28:04;;;;;;;29.13;15.70;;;5.60;1.00;;;;;;5036668;28;20398;-68
2022/01/24 13:30:47;;;;;;;34.13;17.40;;;5.70;1.00;;;;;;5035582;28;20451;-73
2022/01/24 13:33:15;;;;;;;30.33;15.73;;;5.60;1.00;;;;;;5036266;28;20164;-68
2022/01/24 13:35:49;;;;;;;35.07;16.50;;;5.70;1.00;;;;;;5036245;28;20891;-67
2022/01/24 13:38:27;;;;;;;31.27;16.37;;;5.70;1.00;;;;;;5036541;28;20416;-74
2022/01/24 13:41:14;;;;;;;29.20;16.57;;;5.60;1.00;;;;;;5035737;28;20411;-74
2022/01/24 13:43:52;;;;;;;38.77;19.90;;;5.60;1.00;;;;;;5035080;28;20421;-73
2022/01/24 13:46:24;;;;;;;34.80;17.40;;;5.60;1.00;;;;;;5035077;28;20414;-74
2022/01/24 13:49:15;;;;;;;30.40;16.17;;;5.70;1.00;;;;;;5035214;28;20435;-68
2022/01/24 13:51:45;;;;;;;32.07;17.20;;;5.70;1.00;;;;;;5035781;28;20981;-68
2022/01/24 13:54:19;;;;;;;35.00;17.40;;;5.80;1.00;;;;;;5036096;28;20464;-68
2022/01/24 13:56:50;;;;;;;32.13;17.07;;;5.90;1.00;;;;;;5035949;28;20397;-72
2022/01/24 13:59:21;;;;;;;42.60;17.90;;;5.90;1.00;;;;;;5035231;28;20896;-74
2022/01/24 14:01:57;;;;;;;36.50;18.00;;;5.80;1.00;;;;;;5036076;28;20444;-68
2022/01/24 14:04:52;;;;;;;34.27;17.30;;;5.80;1.00;;;;;;5036038;28;20394;-73
2022/01/24 14:07:29;;;;;;;39.93;20.27;;;5.80;1.00;;;;;;5035937;28;20399;-73
2022/01/24 14:09:57;;;;;;;36.67;18.50;;;5.80;1.00;;;;;;5033786;28;20453;-72
2022/01/24 14:12:33;;;;;;;29.10;16.40;;;5.80;1.00;;;;;;5035232;28;20398;-68
2022/01/24 14:15:53;;;;;;;34.40;18.00;;;5.70;1.00;;;;;;5035125;28;20493;-74
2022/01/24 14:20:54;;;;;;;33.23;17.50;;;5.70;1.00;;;;;;5034501;28;20454;-69
2022/01/24 14:23:35;;;;;;;41.00;18.10;;;5.60;1.00;;;;;;5035369;28;20469;-74
2022/01/24 14:26:21;;;;;;;39.50;20.43;;;5.60;1.00;;;;;;5035174;28;20497;-74
2022/01/24 14:28:48;;;;;;;32.10;17.13;;;5.60;1.00;;;;;;5034198;28;20416;-74
2022/01/24 14:31:16;;;;;;;29.87;16.93;;;5.60;1.00;;;;;;5034760;28;20887;-68
2022/01/24 14:33:43;;;;;;;48.30;22.20;;;5.60;1.00;;;;;;5035221;28;20408;-68
2022/01/24 14:36:17;;;;;;;44.83;21.37;;;5.60;1.00;;;;;;5035163;28;20881;-67
2022/01/24 14:38:48;;;;;;;37.20;18.10;;;5.60;1.00;;;;;;5034398;28;20402;-67
2022/01/24 14:41:17;;;;;;;42.70;19.07;;;5.60;1.00;;;;;;5034854;28;20976;-74
2022/01/24 14:46:39;;;;;;;45.30;19.47;;;5.50;1.00;;;;;;5035296;28;20917;-69
2022/01/24 14:49:14;;;;;;;34.63;19.30;;;5.60;1.00;;;;;;5033732;28;20434;-75
2022/01/24 14:51:43;;;;;;;48.17;22.13;;;5.60;1.00;;;;;;5035074;28;20439;-68
2022/01/24 14:54:14;;;;;;;40.90;19.50;;;5.50;1.00;;;;;;5035044;28;20485;-68
2022/01/24 14:56:43;;;;;;;40.70;18.67;;;5.60;1.00;;;;;;5034869;28;20402;-75
2022/01/24 14:59:09;;;;;;;35.37;18.03;;;5.60;1.00;;;;;;5034098;28;20454;-68
2022/01/24 15:01:35;;;;;;;41.43;19.93;;;5.60;1.00;;;;;;5034858;28;20419;-68